sensor_id;sensor_type;location;lat;lon;timestamp;P1;durP1;ratioP1;P2;durP2;ratioP2
63296;SDS011;49419;51.716;-4.948;2022-10-19T09:04:54;13.65;;;12.60;;
63296;SDS011;49419;51.716;-4.948;2022-10-19T09:12:49;13.68;;;12.50;;
63296;SDS011;49419;51.716;-4.948;2022-10-19T11:56:15;11.73;;;10.70;;
63296;SDS011;49419;51.716;-4.948;2022-10-19T11:59:30;12.93;;;11.73;;
63296;SDS011;49419;51.716;-4.948;2022-10-19T12:14:20;12.13;;;11.02;;
63296;SDS011;49419;51.716;-4.948;2022-10-19T12:19:45;13.13;;;11.80;;
63296;SDS011;49419;51.716;-4.948;2022-10-19T12:22:40;13.50;;;11.43;;
63296;SDS011;49419;51.716;-4.948;2022-10-19T12:25:22;14.55;;;10.60;;
63296;SDS011;49419;51.716;-4.948;2022-10-19T12:30:52;11.73;;;10.68;;
63296;SDS011;49419;51.716;-4.948;2022-10-19T12:34:01;12.00;;;10.85;;
63296;SDS011;49419;51.716;-4.948;2022-10-19T12:49:48;12.70;;;11.40;;
63296;SDS011;49419;51.716;-4.948;2022-10-19T12:58:19;11.82;;;10.73;;
63296;SDS011;49419;51.716;-4.948;2022-10-19T13:01:00;11.70;;;10.77;;
63296;SDS011;49419;51.716;-4.948;2022-10-19T13:03:42;12.38;;;11.15;;
63296;SDS011;49419;51.716;-4.948;2022-10-19T13:07:04;11.65;;;10.68;;
63296;SDS011;49419;51.716;-4.948;2022-10-19T13:09:39;11.52;;;10.63;;
63296;SDS011;49419;51.716;-4.948;2022-10-19T13:18:01;11.52;;;10.35;;
63296;SDS011;49419;51.716;-4.948;2022-10-19T13:29:02;10.82;;;9.70;;
63296;SDS011;49419;51.716;-4.948;2022-10-19T13:39:51;10.77;;;9.65;;
63296;SDS011;49419;51.716;-4.948;2022-10-19T13:42:24;10.88;;;9.82;;
63296;SDS011;49419;51.716;-4.948;2022-10-19T13:45:18;10.75;;;9.75;;
63296;SDS011;49419;51.716;-4.948;2022-10-19T13:47:45;11.20;;;10.10;;
63296;SDS011;49419;51.716;-4.948;2022-10-19T13:56:34;10.40;;;9.38;;
63296;SDS011;49419;51.716;-4.948;2022-10-19T14:02:20;10.35;;;9.45;;
63296;SDS011;49419;51.716;-4.948;2022-10-19T14:05:02;10.27;;;9.27;;
63296;SDS011;49419;51.716;-4.948;2022-10-19T14:10:27;10.15;;;9.35;;
63296;SDS011;49419;51.716;-4.948;2022-10-19T14:21:27;10.80;;;9.82;;
63296;SDS011;49419;51.716;-4.948;2022-10-19T14:23:54;10.00;;;9.10;;
63296;SDS011;49419;51.716;-4.948;2022-10-19T14:26:35;9.88;;;8.98;;
63296;SDS011;49419;51.716;-4.948;2022-10-19T14:34:14;9.90;;;8.95;;
63296;SDS011;49419;51.716;-4.948;2022-10-19T14:36:44;10.57;;;9.32;;
63296;SDS011;49419;51.716;-4.948;2022-10-19T14:39:31;10.07;;;9.18;;
63296;SDS011;49419;51.716;-4.948;2022-10-19T14:45:20;10.25;;;9.32;;
63296;SDS011;49419;51.716;-4.948;2022-10-19T14:47:50;10.27;;;9.40;;
63296;SDS011;49419;51.716;-4.948;2022-10-19T14:53:41;10.60;;;9.60;;
63296;SDS011;49419;51.716;-4.948;2022-10-19T14:56:52;9.85;;;8.98;;
63296;SDS011;49419;51.716;-4.948;2022-10-19T14:59:42;9.98;;;9.00;;
63296;SDS011;49419;51.716;-4.948;2022-10-19T15:11:37;10.60;;;9.70;;
63296;SDS011;49419;51.716;-4.948;2022-10-19T15:14:25;10.27;;;9.40;;
63296;SDS011;49419;51.716;-4.948;2022-10-19T15:20:15;11.45;;;9.40;;
63296;SDS011;49419;51.716;-4.948;2022-10-19T15:22:55;10.18;;;9.20;;
63296;SDS011;49419;51.716;-4.948;2022-10-19T15:32:56;9.95;;;9.02;;
63296;SDS011;49419;51.716;-4.948;2022-10-19T15:35:26;10.23;;;9.45;;
63296;SDS011;49419;51.716;-4.948;2022-10-19T15:38:19;9.85;;;8.88;;
63296;SDS011;49419;51.716;-4.948;2022-10-19T15:41:01;9.77;;;8.73;;
63296;SDS011;49419;51.716;-4.948;2022-10-19T15:43:36;11.02;;;9.82;;
63296;SDS011;49419;51.716;-4.948;2022-10-19T15:46:35;9.77;;;8.77;;
63296;SDS011;49419;51.716;-4.948;2022-10-19T15:53:02;10.00;;;9.02;;
63296;SDS011;49419;51.716;-4.948;2022-10-19T15:55:56;8.90;;;8.20;;
63296;SDS011;49419;51.716;-4.948;2022-10-19T15:58:28;11.13;;;9.10;;
63296;SDS011;49419;51.716;-4.948;2022-10-19T16:00:54;9.55;;;8.68;;
63296;SDS011;49419;51.716;-4.948;2022-10-19T16:08:39;9.10;;;8.40;;
63296;SDS011;49419;51.716;-4.948;2022-10-19T16:11:19;10.70;;;8.70;;
63296;SDS011;49419;51.716;-4.948;2022-10-19T16:14:26;9.48;;;8.63;;
63296;SDS011;49419;51.716;-4.948;2022-10-19T16:17:28;9.50;;;8.65;;
63296;SDS011;49419;51.716;-4.948;2022-10-19T16:20:15;10.02;;;9.13;;
63296;SDS011;49419;51.716;-4.948;2022-10-19T16:22:52;10.02;;;9.13;;
63296;SDS011;49419;51.716;-4.948;2022-10-19T16:28:05;9.85;;;8.93;;
63296;SDS011;49419;51.716;-4.948;2022-10-19T16:34:05;10.90;;;9.98;;
63296;SDS011;49419;51.716;-4.948;2022-10-19T16:36:34;10.32;;;9.43;;
63296;SDS011;49419;51.716;-4.948;2022-10-19T16:38:59;11.38;;;10.40;;
63296;SDS011;49419;51.716;-4.948;2022-10-19T16:41:26;10.80;;;9.88;;
63296;SDS011;49419;51.716;-4.948;2022-10-19T16:43:58;10.57;;;9.77;;
63296;SDS011;49419;51.716;-4.948;2022-10-19T16:46:25;10.63;;;9.82;;
63296;SDS011;49419;51.716;-4.948;2022-10-19T16:48:52;10.55;;;9.65;;
63296;SDS011;49419;51.716;-4.948;2022-10-19T16:51:27;11.07;;;10.15;;
63296;SDS011;49419;51.716;-4.948;2022-10-19T16:54:04;11.93;;;9.85;;
63296;SDS011;49419;51.716;-4.948;2022-10-19T16:56:46;10.80;;;9.88;;
63296;SDS011;49419;51.716;-4.948;2022-10-19T16:59:20;10.77;;;9.88;;
63296;SDS011;49419;51.716;-4.948;2022-10-19T17:01:50;10.45;;;9.52;;
63296;SDS011;49419;51.716;-4.948;2022-10-19T17:04:17;10.70;;;9.75;;
63296;SDS011;49419;51.716;-4.948;2022-10-19T17:06:57;10.60;;;9.68;;
63296;SDS011;49419;51.716;-4.948;2022-10-19T17:09:22;10.77;;;9.77;;
63296;SDS011;49419;51.716;-4.948;2022-10-19T17:12:01;10.50;;;9.60;;
63296;SDS011;49419;51.716;-4.948;2022-10-19T17:14:26;10.57;;;9.68;;
63296;SDS011;49419;51.716;-4.948;2022-10-19T17:16:53;12.15;;;10.07;;
63296;SDS011;49419;51.716;-4.948;2022-10-19T17:19:18;12.20;;;11.02;;
63296;SDS011;49419;51.716;-4.948;2022-10-19T17:21:44;12.30;;;10.63;;
63296;SDS011;49419;51.716;-4.948;2022-10-19T17:24:13;11.40;;;10.23;;
63296;SDS011;49419;51.716;-4.948;2022-10-19T17:26:41;11.07;;;10.23;;
63296;SDS011;49419;51.716;-4.948;2022-10-19T17:29:11;11.73;;;10.73;;
63296;SDS011;49419;51.716;-4.948;2022-10-19T17:31:38;12.65;;;10.63;;
63296;SDS011;49419;51.716;-4.948;2022-10-19T17:37:15;11.18;;;10.10;;
63296;SDS011;49419;51.716;-4.948;2022-10-19T17:42:13;11.63;;;10.63;;
63296;SDS011;49419;51.716;-4.948;2022-10-19T17:45:13;11.27;;;10.27;;
63296;SDS011;49419;51.716;-4.948;2022-10-19T17:47:43;10.80;;;9.90;;
63296;SDS011;49419;51.716;-4.948;2022-10-19T17:55:19;10.82;;;9.93;;
63296;SDS011;49419;51.716;-4.948;2022-10-19T17:57:51;10.63;;;9.82;;
63296;SDS011;49419;51.716;-4.948;2022-10-19T18:00:37;10.63;;;9.73;;
63296;SDS011;49419;51.716;-4.948;2022-10-19T18:03:36;10.68;;;9.77;;
63296;SDS011;49419;51.716;-4.948;2022-10-19T18:06:07;10.68;;;9.70;;
63296;SDS011;49419;51.716;-4.948;2022-10-19T18:08:43;10.43;;;9.52;;
63296;SDS011;49419;51.716;-4.948;2022-10-19T18:11:12;10.75;;;9.88;;
63296;SDS011;49419;51.716;-4.948;2022-10-19T18:13:42;9.95;;;9.15;;
63296;SDS011;49419;51.716;-4.948;2022-10-19T18:16:21;10.40;;;9.02;;
63296;SDS011;49419;51.716;-4.948;2022-10-19T18:18:54;9.80;;;8.88;;
63296;SDS011;49419;51.716;-4.948;2022-10-19T18:21:46;9.93;;;9.02;;
63296;SDS011;49419;51.716;-4.948;2022-10-19T18:24:22;9.55;;;8.75;;
63296;SDS011;49419;51.716;-4.948;2022-10-19T18:26:48;9.30;;;8.57;;
63296;SDS011;49419;51.716;-4.948;2022-10-19T18:29:25;11.95;;;9.68;;
63296;SDS011;49419;51.716;-4.948;2022-10-19T18:31:51;11.30;;;10.20;;
63296;SDS011;49419;51.716;-4.948;2022-10-19T18:34:29;11.40;;;10.30;;
63296;SDS011;49419;51.716;-4.948;2022-10-19T18:37:37;11.65;;;10.75;;
63296;SDS011;49419;51.716;-4.948;2022-10-19T18:40:11;12.00;;;10.85;;
63296;SDS011;49419;51.716;-4.948;2022-10-19T18:42:41;11.35;;;10.27;;
63296;SDS011;49419;51.716;-4.948;2022-10-19T18:45:37;11.63;;;10.40;;
63296;SDS011;49419;51.716;-4.948;2022-10-19T18:48:02;11.63;;;10.43;;
63296;SDS011;49419;51.716;-4.948;2022-10-19T18:50:38;12.80;;;10.75;;
63296;SDS011;49419;51.716;-4.948;2022-10-19T18:53:19;12.07;;;10.90;;
63296;SDS011;49419;51.716;-4.948;2022-10-19T18:55:55;12.00;;;11.00;;
63296;SDS011;49419;51.716;-4.948;2022-10-19T18:58:25;12.30;;;11.15;;
63296;SDS011;49419;51.716;-4.948;2022-10-19T19:06:46;11.73;;;10.60;;
63296;SDS011;49419;51.716;-4.948;2022-10-19T19:09:19;12.13;;;11.13;;
63296;SDS011;49419;51.716;-4.948;2022-10-19T19:24:38;12.57;;;10.85;;
63296;SDS011;49419;51.716;-4.948;2022-10-19T19:27:12;12.27;;;11.18;;
63296;SDS011;49419;51.716;-4.948;2022-10-19T19:29:46;12.38;;;11.27;;
63296;SDS011;49419;51.716;-4.948;2022-10-19T19:45:59;12.82;;;11.60;;
63296;SDS011;49419;51.716;-4.948;2022-10-19T19:48:59;13.50;;;12.10;;
63296;SDS011;49419;51.716;-4.948;2022-10-19T19:51:39;15.02;;;12.27;;
63296;SDS011;49419;51.716;-4.948;2022-10-19T20:18:46;14.82;;;13.10;;
63296;SDS011;49419;51.716;-4.948;2022-10-19T20:21:17;13.80;;;12.40;;
63296;SDS011;49419;51.716;-4.948;2022-10-19T20:23:59;13.73;;;12.63;;
63296;SDS011;49419;51.716;-4.948;2022-10-19T20:26:26;13.80;;;12.60;;
63296;SDS011;49419;51.716;-4.948;2022-10-19T20:34:33;14.55;;;13.10;;
63296;SDS011;49419;51.716;-4.948;2022-10-19T20:52:21;14.97;;;13.67;;
63296;SDS011;49419;51.716;-4.948;2022-10-19T20:57:24;16.50;;;13.48;;
63296;SDS011;49419;51.716;-4.948;2022-10-19T21:14:15;14.27;;;13.00;;
63296;SDS011;49419;51.716;-4.948;2022-10-19T21:16:49;14.25;;;13.05;;
63296;SDS011;49419;51.716;-4.948;2022-10-19T21:24:44;13.73;;;12.52;;
63296;SDS011;49419;51.716;-4.948;2022-10-19T21:27:37;13.63;;;12.52;;
63296;SDS011;49419;51.716;-4.948;2022-10-19T21:33:10;14.02;;;12.88;;
63296;SDS011;49419;51.716;-4.948;2022-10-19T21:35:40;14.48;;;12.98;;
63296;SDS011;49419;51.716;-4.948;2022-10-19T21:43:59;14.57;;;13.27;;
63296;SDS011;49419;51.716;-4.948;2022-10-19T23:29:40;12.85;;;11.98;;
